sensor_id;sensor_type;location;lat;lon;timestamp;P1;durP1;ratioP1;P2;durP2;ratioP2
31128;SDS011;17777;48.770;8.944;2022-08-19T00:01:22;1.52;;;1.42;;
31128;SDS011;17777;48.770;8.944;2022-08-19T00:03:49;1.77;;;1.65;;
31128;SDS011;17777;48.770;8.944;2022-08-19T00:06:16;1.30;;;1.20;;
31128;SDS011;17777;48.770;8.944;2022-08-19T00:08:42;1.77;;;1.50;;
31128;SDS011;17777;48.770;8.944;2022-08-19T00:11:08;1.50;;;1.40;;
31128;SDS011;17777;48.770;8.944;2022-08-19T00:13:34;1.50;;;1.40;;
31128;SDS011;17777;48.770;8.944;2022-08-19T00:16:01;1.27;;;1.17;;
31128;SDS011;17777;48.770;8.944;2022-08-19T00:18:28;1.38;;;1.25;;
31128;SDS011;17777;48.770;8.944;2022-08-19T00:20:53;1.48;;;1.38;;
31128;SDS011;17777;48.770;8.944;2022-08-19T00:23:20;1.20;;;1.10;;
31128;SDS011;17777;48.770;8.944;2022-08-19T00:25:46;1.15;;;1.08;;
31128;SDS011;17777;48.770;8.944;2022-08-19T00:28:11;1.25;;;1.17;;
31128;SDS011;17777;48.770;8.944;2022-08-19T00:30:38;1.50;;;1.40;;
31128;SDS011;17777;48.770;8.944;2022-08-19T00:33:04;1.23;;;1.13;;
31128;SDS011;17777;48.770;8.944;2022-08-19T00:35:30;1.50;;;1.40;;
31128;SDS011;17777;48.770;8.944;2022-08-19T00:37:55;1.50;;;1.40;;
31128;SDS011;17777;48.770;8.944;2022-08-19T00:40:21;1.45;;;1.35;;
31128;SDS011;17777;48.770;8.944;2022-08-19T00:42:47;1.55;;;1.45;;
31128;SDS011;17777;48.770;8.944;2022-08-19T00:45:15;1.60;;;1.50;;
31128;SDS011;17777;48.770;8.944;2022-08-19T00:47:45;1.27;;;1.17;;
31128;SDS011;17777;48.770;8.944;2022-08-19T00:50:13;1.40;;;1.30;;
31128;SDS011;17777;48.770;8.944;2022-08-19T00:52:43;1.70;;;1.60;;
31128;SDS011;17777;48.770;8.944;2022-08-19T00:55:18;1.50;;;1.40;;
31128;SDS011;17777;48.770;8.944;2022-08-19T00:57:53;1.58;;;1.48;;
31128;SDS011;17777;48.770;8.944;2022-08-19T01:00:26;1.83;;;1.73;;
31128;SDS011;17777;48.770;8.944;2022-08-19T01:02:54;1.92;;;1.80;;
31128;SDS011;17777;48.770;8.944;2022-08-19T01:05:21;1.73;;;1.63;;
31128;SDS011;17777;48.770;8.944;2022-08-19T01:07:52;1.88;;;1.77;;
31128;SDS011;17777;48.770;8.944;2022-08-19T01:10:22;1.50;;;1.40;;
31128;SDS011;17777;48.770;8.944;2022-08-19T01:12:52;1.50;;;1.40;;
31128;SDS011;17777;48.770;8.944;2022-08-19T01:15:24;1.50;;;1.40;;
31128;SDS011;17777;48.770;8.944;2022-08-19T01:17:55;1.30;;;1.20;;
31128;SDS011;17777;48.770;8.944;2022-08-19T01:20:25;1.45;;;1.35;;
31128;SDS011;17777;48.770;8.944;2022-08-19T01:22:53;1.40;;;1.30;;
31128;SDS011;17777;48.770;8.944;2022-08-19T01:25:24;1.67;;;1.58;;
31128;SDS011;17777;48.770;8.944;2022-08-19T01:27:55;1.67;;;1.58;;
31128;SDS011;17777;48.770;8.944;2022-08-19T01:30:23;1.58;;;1.48;;
31128;SDS011;17777;48.770;8.944;2022-08-19T01:32:56;1.48;;;1.38;;
31128;SDS011;17777;48.770;8.944;2022-08-19T01:35:25;1.80;;;1.67;;
31128;SDS011;17777;48.770;8.944;2022-08-19T01:40:29;1.70;;;1.60;;
31128;SDS011;17777;48.770;8.944;2022-08-19T01:42:58;2.20;;;2.00;;
31128;SDS011;17777;48.770;8.944;2022-08-19T01:45:25;2.03;;;1.85;;
31128;SDS011;17777;48.770;8.944;2022-08-19T01:47:53;2.00;;;1.80;;
31128;SDS011;17777;48.770;8.944;2022-08-19T01:50:19;2.05;;;1.95;;
31128;SDS011;17777;48.770;8.944;2022-08-19T01:52:46;2.03;;;1.92;;
31128;SDS011;17777;48.770;8.944;2022-08-19T01:55:16;1.92;;;1.83;;
31128;SDS011;17777;48.770;8.944;2022-08-19T01:57:49;1.70;;;1.60;;
31128;SDS011;17777;48.770;8.944;2022-08-19T02:00:21;1.77;;;1.67;;
31128;SDS011;17777;48.770;8.944;2022-08-19T02:02:49;2.22;;;1.88;;
31128;SDS011;17777;48.770;8.944;2022-08-19T02:05:15;1.88;;;1.73;;
31128;SDS011;17777;48.770;8.944;2022-08-19T02:07:43;1.65;;;1.55;;
31128;SDS011;17777;48.770;8.944;2022-08-19T02:10:11;2.17;;;2.00;;
31128;SDS011;17777;48.770;8.944;2022-08-19T02:12:41;2.70;;;2.50;;
31128;SDS011;17777;48.770;8.944;2022-08-19T02:15:07;2.58;;;2.38;;
31128;SDS011;17777;48.770;8.944;2022-08-19T02:17:33;2.10;;;1.90;;
31128;SDS011;17777;48.770;8.944;2022-08-19T02:20:00;3.85;;;2.60;;
31128;SDS011;17777;48.770;8.944;2022-08-19T02:22:27;1.92;;;1.83;;
31128;SDS011;17777;48.770;8.944;2022-08-19T02:24:53;2.85;;;2.55;;
31128;SDS011;17777;48.770;8.944;2022-08-19T02:27:20;2.22;;;2.03;;
31128;SDS011;17777;48.770;8.944;2022-08-19T02:29:47;2.63;;;2.42;;
31128;SDS011;17777;48.770;8.944;2022-08-19T02:32:15;2.33;;;2.13;;
31128;SDS011;17777;48.770;8.944;2022-08-19T02:34:41;2.33;;;2.13;;
31128;SDS011;17777;48.770;8.944;2022-08-19T02:37:07;2.03;;;1.85;;
31128;SDS011;17777;48.770;8.944;2022-08-19T02:39:53;1.80;;;1.70;;
31128;SDS011;17777;48.770;8.944;2022-08-19T02:42:19;2.20;;;2.00;;
31128;SDS011;17777;48.770;8.944;2022-08-19T02:44:45;1.85;;;1.75;;
31128;SDS011;17777;48.770;8.944;2022-08-19T02:47:10;2.20;;;2.00;;
31128;SDS011;17777;48.770;8.944;2022-08-19T02:49:38;1.88;;;1.77;;
31128;SDS011;17777;48.770;8.944;2022-08-19T02:52:04;1.90;;;1.80;;
31128;SDS011;17777;48.770;8.944;2022-08-19T02:54:29;1.70;;;1.60;;
31128;SDS011;17777;48.770;8.944;2022-08-19T02:56:55;1.75;;;1.65;;
31128;SDS011;17777;48.770;8.944;2022-08-19T02:59:21;3.50;;;2.33;;
31128;SDS011;17777;48.770;8.944;2022-08-19T03:01:47;1.70;;;1.60;;
31128;SDS011;17777;48.770;8.944;2022-08-19T03:04:14;1.70;;;1.50;;
31128;SDS011;17777;48.770;8.944;2022-08-19T03:06:42;1.50;;;1.40;;
31128;SDS011;17777;48.770;8.944;2022-08-19T03:09:10;1.80;;;1.70;;
31128;SDS011;17777;48.770;8.944;2022-08-19T03:11:37;1.65;;;1.55;;
31128;SDS011;17777;48.770;8.944;2022-08-19T03:14:04;2.38;;;2.17;;
31128;SDS011;17777;48.770;8.944;2022-08-19T03:16:33;2.35;;;2.15;;
31128;SDS011;17777;48.770;8.944;2022-08-19T03:19:10;2.47;;;2.28;;
31128;SDS011;17777;48.770;8.944;2022-08-19T03:21:36;2.10;;;1.90;;
31128;SDS011;17777;48.770;8.944;2022-08-19T03:24:04;2.30;;;2.10;;
31128;SDS011;17777;48.770;8.944;2022-08-19T03:26:33;2.53;;;2.33;;
31128;SDS011;17777;48.770;8.944;2022-08-19T03:29:04;2.40;;;2.20;;
31128;SDS011;17777;48.770;8.944;2022-08-19T03:31:30;2.30;;;1.92;;
31128;SDS011;17777;48.770;8.944;2022-08-19T03:33:56;2.00;;;1.90;;
31128;SDS011;17777;48.770;8.944;2022-08-19T03:36:23;1.85;;;1.75;;
31128;SDS011;17777;48.770;8.944;2022-08-19T03:38:52;1.98;;;1.88;;
31128;SDS011;17777;48.770;8.944;2022-08-19T03:41:26;1.80;;;1.70;;
31128;SDS011;17777;48.770;8.944;2022-08-19T03:44:04;2.13;;;1.92;;
31128;SDS011;17777;48.770;8.944;2022-08-19T03:46:30;2.20;;;2.00;;
31128;SDS011;17777;48.770;8.944;2022-08-19T03:48:59;2.15;;;1.98;;
31128;SDS011;17777;48.770;8.944;2022-08-19T03:51:32;2.03;;;1.83;;
31128;SDS011;17777;48.770;8.944;2022-08-19T03:54:03;1.88;;;1.77;;
31128;SDS011;17777;48.770;8.944;2022-08-19T03:56:34;2.20;;;2.10;;
31128;SDS011;17777;48.770;8.944;2022-08-19T03:59:02;1.88;;;1.70;;
31128;SDS011;17777;48.770;8.944;2022-08-19T04:01:30;1.77;;;1.67;;
31128;SDS011;17777;48.770;8.944;2022-08-19T04:03:56;1.50;;;1.40;;
31128;SDS011;17777;48.770;8.944;2022-08-19T04:06:30;1.55;;;1.45;;
31128;SDS011;17777;48.770;8.944;2022-08-19T04:09:00;1.70;;;1.60;;
31128;SDS011;17777;48.770;8.944;2022-08-19T04:11:40;2.13;;;1.42;;
31128;SDS011;17777;48.770;8.944;2022-08-19T04:14:13;1.98;;;1.88;;
31128;SDS011;17777;48.770;8.944;2022-08-19T04:16:43;1.48;;;1.38;;
31128;SDS011;17777;48.770;8.944;2022-08-19T04:19:11;1.75;;;1.65;;
31128;SDS011;17777;48.770;8.944;2022-08-19T04:21:38;1.80;;;1.70;;
31128;SDS011;17777;48.770;8.944;2022-08-19T04:24:05;1.63;;;1.52;;
31128;SDS011;17777;48.770;8.944;2022-08-19T04:26:32;1.35;;;1.25;;
31128;SDS011;17777;48.770;8.944;2022-08-19T04:29:01;1.42;;;1.33;;
31128;SDS011;17777;48.770;8.944;2022-08-19T04:31:32;1.42;;;1.33;;
31128;SDS011;17777;48.770;8.944;2022-08-19T04:34:01;1.40;;;1.30;;
31128;SDS011;17777;48.770;8.944;2022-08-19T04:36:33;1.77;;;1.67;;
31128;SDS011;17777;48.770;8.944;2022-08-19T04:39:03;1.67;;;1.58;;
31128;SDS011;17777;48.770;8.944;2022-08-19T04:41:33;2.28;;;2.08;;
31128;SDS011;17777;48.770;8.944;2022-08-19T04:44:18;1.77;;;1.67;;
31128;SDS011;17777;48.770;8.944;2022-08-19T04:46:44;2.40;;;2.20;;
31128;SDS011;17777;48.770;8.944;2022-08-19T04:49:13;2.60;;;2.40;;
31128;SDS011;17777;48.770;8.944;2022-08-19T04:51:42;2.55;;;2.35;;
31128;SDS011;17777;48.770;8.944;2022-08-19T04:54:11;2.22;;;2.05;;
31128;SDS011;17777;48.770;8.944;2022-08-19T04:56:38;2.42;;;2.20;;
31128;SDS011;17777;48.770;8.944;2022-08-19T04:59:05;2.08;;;1.95;;
31128;SDS011;17777;48.770;8.944;2022-08-19T05:01:32;2.45;;;2.25;;
31128;SDS011;17777;48.770;8.944;2022-08-19T05:04:02;2.30;;;2.10;;
31128;SDS011;17777;48.770;8.944;2022-08-19T05:06:31;1.75;;;1.65;;
31128;SDS011;17777;48.770;8.944;2022-08-19T05:08:58;1.75;;;1.65;;
31128;SDS011;17777;48.770;8.944;2022-08-19T05:11:30;2.22;;;2.03;;
31128;SDS011;17777;48.770;8.944;2022-08-19T05:13:59;2.33;;;2.13;;
31128;SDS011;17777;48.770;8.944;2022-08-19T05:16:25;2.30;;;2.10;;
31128;SDS011;17777;48.770;8.944;2022-08-19T05:18:52;2.25;;;2.10;;
31128;SDS011;17777;48.770;8.944;2022-08-19T05:21:39;1.80;;;1.70;;
31128;SDS011;17777;48.770;8.944;2022-08-19T05:24:24;1.63;;;1.52;;
31128;SDS011;17777;48.770;8.944;2022-08-19T05:26:52;1.98;;;1.80;;
31128;SDS011;17777;48.770;8.944;2022-08-19T05:29:21;1.88;;;1.77;;
31128;SDS011;17777;48.770;8.944;2022-08-19T05:31:51;1.67;;;1.58;;
31128;SDS011;17777;48.770;8.944;2022-08-19T05:34:18;2.13;;;2.03;;
31128;SDS011;17777;48.770;8.944;2022-08-19T05:36:48;2.58;;;2.38;;
31128;SDS011;17777;48.770;8.944;2022-08-19T05:39:17;1.80;;;1.70;;
31128;SDS011;17777;48.770;8.944;2022-08-19T05:41:46;1.50;;;1.40;;
31128;SDS011;17777;48.770;8.944;2022-08-19T05:44:18;2.00;;;1.90;;
31128;SDS011;17777;48.770;8.944;2022-08-19T05:46:45;1.85;;;1.73;;
31128;SDS011;17777;48.770;8.944;2022-08-19T05:49:17;2.17;;;2.00;;
31128;SDS011;17777;48.770;8.944;2022-08-19T05:51:46;1.77;;;1.67;;
31128;SDS011;17777;48.770;8.944;2022-08-19T05:54:12;1.58;;;1.48;;
31128;SDS011;17777;48.770;8.944;2022-08-19T05:56:39;1.63;;;1.52;;
31128;SDS011;17777;48.770;8.944;2022-08-19T05:59:07;1.83;;;1.73;;
31128;SDS011;17777;48.770;8.944;2022-08-19T06:01:37;1.50;;;1.40;;
31128;SDS011;17777;48.770;8.944;2022-08-19T06:04:04;1.63;;;1.52;;
31128;SDS011;17777;48.770;8.944;2022-08-19T06:06:30;2.47;;;1.65;;
31128;SDS011;17777;48.770;8.944;2022-08-19T06:08:56;1.55;;;1.45;;
31128;SDS011;17777;48.770;8.944;2022-08-19T06:11:24;2.15;;;1.95;;
31128;SDS011;17777;48.770;8.944;2022-08-19T06:14:13;1.90;;;1.80;;
31128;SDS011;17777;48.770;8.944;2022-08-19T06:16:43;1.95;;;1.73;;
31128;SDS011;17777;48.770;8.944;2022-08-19T06:19:13;1.60;;;1.50;;
31128;SDS011;17777;48.770;8.944;2022-08-19T06:21:42;2.03;;;1.92;;
31128;SDS011;17777;48.770;8.944;2022-08-19T06:24:13;2.08;;;1.88;;
31128;SDS011;17777;48.770;8.944;2022-08-19T06:26:43;1.70;;;1.60;;
31128;SDS011;17777;48.770;8.944;2022-08-19T06:29:12;2.22;;;2.03;;
31128;SDS011;17777;48.770;8.944;2022-08-19T06:31:45;1.98;;;1.77;;
31128;SDS011;17777;48.770;8.944;2022-08-19T06:34:16;2.00;;;1.90;;
31128;SDS011;17777;48.770;8.944;2022-08-19T06:36:44;2.10;;;1.90;;
31128;SDS011;17777;48.770;8.944;2022-08-19T06:39:15;1.77;;;1.67;;
31128;SDS011;17777;48.770;8.944;2022-08-19T06:44:16;1.20;;;1.15;;
31128;SDS011;17777;48.770;8.944;2022-08-19T06:46:47;1.67;;;1.58;;
31128;SDS011;17777;48.770;8.944;2022-08-19T06:49:14;1.55;;;1.45;;
31128;SDS011;17777;48.770;8.944;2022-08-19T06:51:42;2.00;;;1.80;;
31128;SDS011;17777;48.770;8.944;2022-08-19T06:54:12;2.58;;;1.70;;
31128;SDS011;17777;48.770;8.944;2022-08-19T06:56:38;1.80;;;1.70;;
31128;SDS011;17777;48.770;8.944;2022-08-19T06:59:08;2.10;;;2.00;;
31128;SDS011;17777;48.770;8.944;2022-08-19T07:01:41;2.00;;;1.90;;
31128;SDS011;17777;48.770;8.944;2022-08-19T07:04:10;1.67;;;1.50;;
31128;SDS011;17777;48.770;8.944;2022-08-19T07:06:38;2.00;;;1.88;;
31128;SDS011;17777;48.770;8.944;2022-08-19T07:09:04;1.63;;;1.52;;
31128;SDS011;17777;48.770;8.944;2022-08-19T07:11:32;1.60;;;1.50;;
31128;SDS011;17777;48.770;8.944;2022-08-19T07:13:58;1.40;;;1.30;;
31128;SDS011;17777;48.770;8.944;2022-08-19T07:16:25;1.67;;;1.58;;
31128;SDS011;17777;48.770;8.944;2022-08-19T07:18:51;1.60;;;1.50;;
31128;SDS011;17777;48.770;8.944;2022-08-19T07:21:18;1.88;;;1.73;;
31128;SDS011;17777;48.770;8.944;2022-08-19T07:23:49;1.30;;;1.20;;
31128;SDS011;17777;48.770;8.944;2022-08-19T07:26:20;1.65;;;1.55;;
31128;SDS011;17777;48.770;8.944;2022-08-19T07:28:56;1.80;;;1.60;;
31128;SDS011;17777;48.770;8.944;2022-08-19T07:31:23;1.70;;;1.60;;
31128;SDS011;17777;48.770;8.944;2022-08-19T07:33:52;1.45;;;1.35;;
31128;SDS011;17777;48.770;8.944;2022-08-19T07:36:24;1.90;;;1.73;;
31128;SDS011;17777;48.770;8.944;2022-08-19T07:38:57;1.63;;;1.52;;
31128;SDS011;17777;48.770;8.944;2022-08-19T07:41:26;1.67;;;1.58;;
31128;SDS011;17777;48.770;8.944;2022-08-19T07:43:55;1.90;;;1.70;;
31128;SDS011;17777;48.770;8.944;2022-08-19T07:46:21;1.40;;;1.30;;
31128;SDS011;17777;48.770;8.944;2022-08-19T07:48:48;1.52;;;1.42;;
31128;SDS011;17777;48.770;8.944;2022-08-19T07:51:17;2.00;;;1.80;;
31128;SDS011;17777;48.770;8.944;2022-08-19T07:53:45;1.50;;;1.40;;
31128;SDS011;17777;48.770;8.944;2022-08-19T07:56:13;1.40;;;1.30;;
31128;SDS011;17777;48.770;8.944;2022-08-19T07:58:40;1.63;;;1.52;;
31128;SDS011;17777;48.770;8.944;2022-08-19T08:01:15;2.00;;;1.80;;
31128;SDS011;17777;48.770;8.944;2022-08-19T08:03:51;1.50;;;1.40;;
31128;SDS011;17777;48.770;8.944;2022-08-19T08:06:38;1.55;;;1.45;;
31128;SDS011;17777;48.770;8.944;2022-08-19T08:09:30;2.03;;;1.65;;
31128;SDS011;17777;48.770;8.944;2022-08-19T08:12:01;1.67;;;1.58;;
31128;SDS011;17777;48.770;8.944;2022-08-19T08:14:40;1.25;;;1.15;;
31128;SDS011;17777;48.770;8.944;2022-08-19T08:17:13;1.48;;;1.38;;
31128;SDS011;17777;48.770;8.944;2022-08-19T08:19:41;1.75;;;1.65;;
31128;SDS011;17777;48.770;8.944;2022-08-19T08:22:08;1.70;;;1.50;;
31128;SDS011;17777;48.770;8.944;2022-08-19T08:24:55;1.20;;;1.15;;
31128;SDS011;17777;48.770;8.944;2022-08-19T08:27:23;1.35;;;1.25;;
31128;SDS011;17777;48.770;8.944;2022-08-19T08:29:50;1.30;;;1.20;;
31128;SDS011;17777;48.770;8.944;2022-08-19T08:32:16;1.60;;;1.45;;
31128;SDS011;17777;48.770;8.944;2022-08-19T08:34:42;3.33;;;1.30;;
31128;SDS011;17777;48.770;8.944;2022-08-19T08:37:08;1.60;;;1.50;;
31128;SDS011;17777;48.770;8.944;2022-08-19T08:39:34;1.42;;;1.33;;
31128;SDS011;17777;48.770;8.944;2022-08-19T08:47:32;1.60;;;1.50;;
31128;SDS011;17777;48.770;8.944;2022-08-19T08:50:07;1.38;;;1.27;;
31128;SDS011;17777;48.770;8.944;2022-08-19T08:53:00;1.67;;;1.58;;
31128;SDS011;17777;48.770;8.944;2022-08-19T08:55:30;1.83;;;1.52;;
31128;SDS011;17777;48.770;8.944;2022-08-19T09:00:38;1.30;;;1.20;;
31128;SDS011;17777;48.770;8.944;2022-08-19T09:03:19;1.33;;;1.23;;
31128;SDS011;17777;48.770;8.944;2022-08-19T09:06:03;1.60;;;1.50;;
31128;SDS011;17777;48.770;8.944;2022-08-19T09:14:49;1.63;;;1.52;;
31128;SDS011;17777;48.770;8.944;2022-08-19T09:17:24;1.38;;;1.33;;
31128;SDS011;17777;48.770;8.944;2022-08-19T09:22:34;1.15;;;1.15;;
31128;SDS011;17777;48.770;8.944;2022-08-19T09:25:01;1.52;;;1.42;;
31128;SDS011;17777;48.770;8.944;2022-08-19T09:27:30;1.30;;;1.20;;
31128;SDS011;17777;48.770;8.944;2022-08-19T09:29:57;1.50;;;1.40;;
31128;SDS011;17777;48.770;8.944;2022-08-19T09:32:23;1.95;;;1.75;;
31128;SDS011;17777;48.770;8.944;2022-08-19T09:34:52;1.52;;;1.42;;
31128;SDS011;17777;48.770;8.944;2022-08-19T09:37:23;1.35;;;1.25;;
31128;SDS011;17777;48.770;8.944;2022-08-19T09:39:50;1.35;;;1.25;;
31128;SDS011;17777;48.770;8.944;2022-08-19T09:42:16;1.48;;;1.38;;
31128;SDS011;17777;48.770;8.944;2022-08-19T09:44:42;1.55;;;1.45;;
31128;SDS011;17777;48.770;8.944;2022-08-19T09:47:10;1.40;;;1.30;;
31128;SDS011;17777;48.770;8.944;2022-08-19T09:49:38;1.63;;;1.50;;
31128;SDS011;17777;48.770;8.944;2022-08-19T09:52:06;1.42;;;1.33;;
31128;SDS011;17777;48.770;8.944;2022-08-19T09:54:35;1.30;;;1.20;;
31128;SDS011;17777;48.770;8.944;2022-08-19T09:57:02;1.52;;;1.42;;
31128;SDS011;17777;48.770;8.944;2022-08-19T09:59:28;1.63;;;1.23;;
31128;SDS011;17777;48.770;8.944;2022-08-19T10:01:54;1.30;;;1.20;;
31128;SDS011;17777;48.770;8.944;2022-08-19T10:04:20;1.35;;;1.25;;
31128;SDS011;17777;48.770;8.944;2022-08-19T10:06:47;1.30;;;1.20;;
31128;SDS011;17777;48.770;8.944;2022-08-19T10:09:15;1.27;;;1.10;;
31128;SDS011;17777;48.770;8.944;2022-08-19T10:11:43;2.28;;;1.30;;
31128;SDS011;17777;48.770;8.944;2022-08-19T10:14:13;1.20;;;1.10;;
31128;SDS011;17777;48.770;8.944;2022-08-19T10:16:40;1.08;;;0.98;;
31128;SDS011;17777;48.770;8.944;2022-08-19T10:19:07;1.35;;;1.25;;
31128;SDS011;17777;48.770;8.944;2022-08-19T10:21:34;1.10;;;1.00;;
31128;SDS011;17777;48.770;8.944;2022-08-19T10:24:02;1.15;;;1.15;;
31128;SDS011;17777;48.770;8.944;2022-08-19T10:26:34;1.13;;;0.98;;
31128;SDS011;17777;48.770;8.944;2022-08-19T10:29:02;1.10;;;1.10;;
31128;SDS011;17777;48.770;8.944;2022-08-19T10:31:31;0.82;;;0.82;;
31128;SDS011;17777;48.770;8.944;2022-08-19T10:33:59;1.27;;;1.17;;
31128;SDS011;17777;48.770;8.944;2022-08-19T10:36:27;1.13;;;1.02;;
31128;SDS011;17777;48.770;8.944;2022-08-19T10:38:57;1.50;;;1.30;;
31128;SDS011;17777;48.770;8.944;2022-08-19T10:41:30;1.40;;;1.30;;
31128;SDS011;17777;48.770;8.944;2022-08-19T10:44:07;1.00;;;1.00;;
31128;SDS011;17777;48.770;8.944;2022-08-19T10:46:36;0.85;;;0.82;;
31128;SDS011;17777;48.770;8.944;2022-08-19T10:49:07;1.33;;;1.10;;
31128;SDS011;17777;48.770;8.944;2022-08-19T10:51:35;2.20;;;1.30;;
31128;SDS011;17777;48.770;8.944;2022-08-19T10:54:19;1.60;;;1.50;;
31128;SDS011;17777;48.770;8.944;2022-08-19T10:56:45;1.20;;;1.10;;
31128;SDS011;17777;48.770;8.944;2022-08-19T11:01:49;1.55;;;1.10;;
31128;SDS011;17777;48.770;8.944;2022-08-19T11:04:16;0.80;;;0.80;;
31128;SDS011;17777;48.770;8.944;2022-08-19T11:06:47;0.93;;;0.93;;
31128;SDS011;17777;48.770;8.944;2022-08-19T11:09:17;0.70;;;0.70;;
31128;SDS011;17777;48.770;8.944;2022-08-19T11:11:47;0.95;;;0.90;;
31128;SDS011;17777;48.770;8.944;2022-08-19T11:14:14;0.95;;;0.95;;
31128;SDS011;17777;48.770;8.944;2022-08-19T11:16:43;0.98;;;0.98;;
31128;SDS011;17777;48.770;8.944;2022-08-19T11:19:10;0.68;;;0.68;;
31128;SDS011;17777;48.770;8.944;2022-08-19T11:21:41;0.90;;;0.90;;
31128;SDS011;17777;48.770;8.944;2022-08-19T11:24:13;0.63;;;0.63;;
31128;SDS011;17777;48.770;8.944;2022-08-19T11:26:45;0.93;;;0.93;;
31128;SDS011;17777;48.770;8.944;2022-08-19T11:29:14;0.75;;;0.75;;
31128;SDS011;17777;48.770;8.944;2022-08-19T11:31:42;0.52;;;0.52;;
31128;SDS011;17777;48.770;8.944;2022-08-19T11:34:10;0.70;;;0.70;;
31128;SDS011;17777;48.770;8.944;2022-08-19T11:36:42;0.70;;;0.70;;
31128;SDS011;17777;48.770;8.944;2022-08-19T11:39:11;0.60;;;0.60;;
31128;SDS011;17777;48.770;8.944;2022-08-19T11:41:39;0.90;;;0.90;;
31128;SDS011;17777;48.770;8.944;2022-08-19T11:44:05;0.73;;;0.73;;
31128;SDS011;17777;48.770;8.944;2022-08-19T11:46:32;0.70;;;0.70;;
31128;SDS011;17777;48.770;8.944;2022-08-19T11:49:01;0.75;;;0.75;;
31128;SDS011;17777;48.770;8.944;2022-08-19T11:51:28;0.55;;;0.55;;
31128;SDS011;17777;48.770;8.944;2022-08-19T11:53:55;0.65;;;0.60;;
31128;SDS011;17777;48.770;8.944;2022-08-19T11:56:23;0.68;;;0.68;;
31128;SDS011;17777;48.770;8.944;2022-08-19T11:58:51;0.60;;;0.60;;
31128;SDS011;17777;48.770;8.944;2022-08-19T12:01:18;0.43;;;0.43;;
31128;SDS011;17777;48.770;8.944;2022-08-19T12:03:48;0.50;;;0.50;;
31128;SDS011;17777;48.770;8.944;2022-08-19T12:06:17;0.47;;;0.47;;
31128;SDS011;17777;48.770;8.944;2022-08-19T12:08:54;0.75;;;0.75;;
31128;SDS011;17777;48.770;8.944;2022-08-19T12:11:21;0.45;;;0.45;;
31128;SDS011;17777;48.770;8.944;2022-08-19T12:13:48;0.60;;;0.60;;
31128;SDS011;17777;48.770;8.944;2022-08-19T12:16:16;0.50;;;0.50;;
31128;SDS011;17777;48.770;8.944;2022-08-19T12:18:48;0.80;;;0.80;;
31128;SDS011;17777;48.770;8.944;2022-08-19T12:21:17;0.63;;;0.63;;
31128;SDS011;17777;48.770;8.944;2022-08-19T12:23:46;0.90;;;0.80;;
31128;SDS011;17777;48.770;8.944;2022-08-19T12:26:14;0.70;;;0.70;;
31128;SDS011;17777;48.770;8.944;2022-08-19T12:28:41;0.50;;;0.50;;
31128;SDS011;17777;48.770;8.944;2022-08-19T12:31:07;0.75;;;0.75;;
31128;SDS011;17777;48.770;8.944;2022-08-19T12:33:37;0.50;;;0.50;;
31128;SDS011;17777;48.770;8.944;2022-08-19T12:36:04;0.65;;;0.65;;
31128;SDS011;17777;48.770;8.944;2022-08-19T12:38:33;0.65;;;0.65;;
31128;SDS011;17777;48.770;8.944;2022-08-19T12:41:00;0.60;;;0.60;;
31128;SDS011;17777;48.770;8.944;2022-08-19T12:43:28;0.60;;;0.60;;
31128;SDS011;17777;48.770;8.944;2022-08-19T12:45:55;0.70;;;0.70;;
31128;SDS011;17777;48.770;8.944;2022-08-19T12:48:21;0.93;;;0.90;;
31128;SDS011;17777;48.770;8.944;2022-08-19T12:50:46;0.77;;;0.77;;
31128;SDS011;17777;48.770;8.944;2022-08-19T12:53:13;0.70;;;0.70;;
31128;SDS011;17777;48.770;8.944;2022-08-19T12:55:40;1.58;;;0.70;;
31128;SDS011;17777;48.770;8.944;2022-08-19T12:58:08;0.82;;;0.82;;
31128;SDS011;17777;48.770;8.944;2022-08-19T13:00:34;0.80;;;0.80;;
31128;SDS011;17777;48.770;8.944;2022-08-19T13:03:00;0.52;;;0.52;;
31128;SDS011;17777;48.770;8.944;2022-08-19T13:05:27;0.57;;;0.57;;
31128;SDS011;17777;48.770;8.944;2022-08-19T13:07:56;0.60;;;0.60;;
31128;SDS011;17777;48.770;8.944;2022-08-19T13:10:26;0.95;;;0.95;;
31128;SDS011;17777;48.770;8.944;2022-08-19T13:13:00;0.90;;;0.90;;
31128;SDS011;17777;48.770;8.944;2022-08-19T13:15:32;0.98;;;0.98;;
31128;SDS011;17777;48.770;8.944;2022-08-19T13:18:00;0.80;;;0.80;;
31128;SDS011;17777;48.770;8.944;2022-08-19T13:20:26;0.60;;;0.60;;
31128;SDS011;17777;48.770;8.944;2022-08-19T13:22:52;0.50;;;0.50;;
31128;SDS011;17777;48.770;8.944;2022-08-19T13:25:19;0.60;;;0.60;;
31128;SDS011;17777;48.770;8.944;2022-08-19T13:27:49;1.00;;;0.70;;
31128;SDS011;17777;48.770;8.944;2022-08-19T13:30:16;0.60;;;0.60;;
31128;SDS011;17777;48.770;8.944;2022-08-19T13:33:03;0.68;;;0.68;;
31128;SDS011;17777;48.770;8.944;2022-08-19T13:35:42;0.80;;;0.80;;
31128;SDS011;17777;48.770;8.944;2022-08-19T13:38:13;0.70;;;0.70;;
31128;SDS011;17777;48.770;8.944;2022-08-19T13:40:45;0.63;;;0.60;;
31128;SDS011;17777;48.770;8.944;2022-08-19T13:43:12;0.70;;;0.70;;
31128;SDS011;17777;48.770;8.944;2022-08-19T13:45:39;0.70;;;0.70;;
31128;SDS011;17777;48.770;8.944;2022-08-19T13:48:05;0.60;;;0.60;;
31128;SDS011;17777;48.770;8.944;2022-08-19T13:50:34;0.65;;;0.65;;
31128;SDS011;17777;48.770;8.944;2022-08-19T13:53:09;0.73;;;0.73;;
31128;SDS011;17777;48.770;8.944;2022-08-19T13:55:37;0.70;;;0.70;;
31128;SDS011;17777;48.770;8.944;2022-08-19T13:58:08;0.82;;;0.82;;
31128;SDS011;17777;48.770;8.944;2022-08-19T14:00:46;0.82;;;0.82;;
31128;SDS011;17777;48.770;8.944;2022-08-19T14:03:13;0.70;;;0.70;;
31128;SDS011;17777;48.770;8.944;2022-08-19T14:05:39;0.60;;;0.60;;
31128;SDS011;17777;48.770;8.944;2022-08-19T14:08:05;0.80;;;0.80;;
31128;SDS011;17777;48.770;8.944;2022-08-19T14:10:31;0.63;;;0.63;;
31128;SDS011;17777;48.770;8.944;2022-08-19T14:12:57;0.95;;;0.80;;
31128;SDS011;17777;48.770;8.944;2022-08-19T14:15:27;0.60;;;0.60;;
31128;SDS011;17777;48.770;8.944;2022-08-19T14:17:54;0.60;;;0.60;;
31128;SDS011;17777;48.770;8.944;2022-08-19T14:20:20;0.65;;;0.60;;
31128;SDS011;17777;48.770;8.944;2022-08-19T14:22:46;0.52;;;0.52;;
31128;SDS011;17777;48.770;8.944;2022-08-19T14:25:16;0.65;;;0.65;;
31128;SDS011;17777;48.770;8.944;2022-08-19T14:27:45;0.70;;;0.70;;
31128;SDS011;17777;48.770;8.944;2022-08-19T14:30:13;0.60;;;0.60;;
31128;SDS011;17777;48.770;8.944;2022-08-19T14:32:44;0.95;;;0.70;;
31128;SDS011;17777;48.770;8.944;2022-08-19T14:35:10;0.75;;;0.75;;
31128;SDS011;17777;48.770;8.944;2022-08-19T14:37:40;0.75;;;0.75;;
31128;SDS011;17777;48.770;8.944;2022-08-19T14:40:08;0.60;;;0.60;;
31128;SDS011;17777;48.770;8.944;2022-08-19T14:42:35;0.60;;;0.60;;
31128;SDS011;17777;48.770;8.944;2022-08-19T14:45:01;0.75;;;0.75;;
31128;SDS011;17777;48.770;8.944;2022-08-19T14:47:30;0.60;;;0.60;;
31128;SDS011;17777;48.770;8.944;2022-08-19T14:49:56;0.52;;;0.52;;
31128;SDS011;17777;48.770;8.944;2022-08-19T14:52:21;0.60;;;0.60;;
31128;SDS011;17777;48.770;8.944;2022-08-19T14:54:47;0.50;;;0.50;;
31128;SDS011;17777;48.770;8.944;2022-08-19T14:57:13;0.55;;;0.55;;
31128;SDS011;17777;48.770;8.944;2022-08-19T14:59:41;0.68;;;0.68;;
31128;SDS011;17777;48.770;8.944;2022-08-19T15:02:08;0.60;;;0.60;;
31128;SDS011;17777;48.770;8.944;2022-08-19T15:04:35;0.68;;;0.55;;
31128;SDS011;17777;48.770;8.944;2022-08-19T15:07:01;0.50;;;0.50;;
31128;SDS011;17777;48.770;8.944;2022-08-19T15:09:29;1.00;;;0.95;;
31128;SDS011;17777;48.770;8.944;2022-08-19T15:11:57;0.70;;;0.70;;
31128;SDS011;17777;48.770;8.944;2022-08-19T15:14:25;1.48;;;0.60;;
31128;SDS011;17777;48.770;8.944;2022-08-19T15:16:53;0.60;;;0.60;;
31128;SDS011;17777;48.770;8.944;2022-08-19T15:19:19;0.80;;;0.80;;
31128;SDS011;17777;48.770;8.944;2022-08-19T15:21:44;0.73;;;0.63;;
31128;SDS011;17777;48.770;8.944;2022-08-19T15:24:10;0.70;;;0.70;;